createdAt,value
2023-02-02T00:00:39.431Z,6.00
2023-02-02T00:02:41.637Z,6.10
2023-02-02T00:04:43.429Z,6.00
2023-02-02T00:06:46.033Z,6.00
2023-02-02T00:08:47.856Z,6.00
2023-02-02T00:10:50.516Z,6.00
2023-02-02T00:12:52.201Z,6.00
2023-02-02T00:14:53.882Z,6.00
2023-02-02T00:16:57.077Z,6.00
2023-02-02T00:19:11.124Z,6.00
2023-02-02T00:21:12.841Z,6.00
2023-02-02T00:23:14.920Z,6.00
2023-02-02T00:25:16.734Z,5.90
2023-02-02T00:27:18.786Z,6.00
2023-02-02T00:29:26.394Z,5.90
2023-02-02T00:31:28.264Z,6.00
2023-02-02T00:33:29.992Z,6.00
2023-02-02T00:35:31.707Z,5.90
2023-02-02T00:37:33.527Z,5.90
2023-02-02T00:39:35.223Z,6.00
2023-02-02T00:41:36.993Z,6.00
2023-02-02T00:43:38.678Z,6.00
2023-02-02T00:45:40.916Z,6.00
2023-02-02T00:47:48.562Z,6.00
2023-02-02T00:49:50.233Z,6.00
2023-02-02T00:51:51.968Z,6.00
2023-02-02T00:53:53.659Z,6.00
2023-02-02T00:55:55.324Z,6.00
2023-02-02T00:57:57.039Z,6.00
2023-02-02T00:59:58.804Z,6.00
2023-02-02T01:02:02.055Z,6.00
2023-02-02T01:04:04.000Z,6.00
2023-02-02T01:06:05.911Z,6.00
2023-02-02T01:08:08.105Z,6.00
2023-02-02T01:10:14.132Z,6.00
2023-02-02T01:12:15.817Z,6.00
2023-02-02T01:14:17.552Z,6.00
2023-02-02T01:16:22.334Z,6.00
2023-02-02T01:18:24.732Z,6.00
2023-02-02T01:20:26.479Z,6.00
2023-02-02T01:22:28.387Z,6.00
2023-02-02T01:24:30.323Z,6.00
2023-02-02T01:26:32.044Z,6.00
2023-02-02T01:28:34.417Z,6.00
2023-02-02T01:30:36.240Z,6.00
2023-02-02T01:32:37.911Z,6.00
2023-02-02T01:34:41.790Z,6.00
2023-02-02T01:36:43.468Z,6.00
2023-02-02T01:38:46.116Z,6.00
2023-02-02T01:40:50.445Z,6.00
2023-02-02T01:42:52.146Z,5.90
2023-02-02T01:45:07.035Z,5.90
2023-02-02T01:47:09.055Z,5.90
2023-02-02T01:49:16.391Z,5.90
2023-02-02T01:51:21.419Z,5.90
2023-02-02T01:53:23.890Z,5.90
2023-02-02T01:55:28.081Z,5.90
2023-02-02T01:57:39.153Z,5.80
2023-02-02T01:59:42.130Z,5.80
2023-02-02T02:01:46.463Z,5.80
2023-02-02T02:03:48.231Z,5.80
2023-02-02T02:06:01.964Z,5.80
2023-02-02T02:08:16.439Z,5.80
2023-02-02T02:10:18.811Z,5.80
2023-02-02T02:12:20.519Z,5.80
2023-02-02T02:14:41.684Z,5.80
2023-02-02T02:16:51.656Z,5.80
2023-02-02T02:19:11.990Z,5.80
2023-02-02T02:21:59.265Z,5.80
2023-02-02T02:24:31.882Z,5.80
2023-02-02T02:27:11.649Z,5.80
2023-02-02T02:29:37.905Z,5.80
2023-02-02T02:31:48.689Z,5.90
2023-02-02T02:34:03.341Z,5.90
2023-02-02T02:36:33.504Z,5.90
2023-02-02T02:38:45.155Z,5.90
2023-02-02T02:40:53.898Z,5.90
2023-02-02T02:42:59.278Z,5.90
2023-02-02T02:45:03.947Z,5.90
2023-02-02T02:47:05.943Z,5.90
2023-02-02T02:49:10.892Z,5.90
2023-02-02T02:51:43.842Z,5.90
2023-02-02T02:53:45.565Z,6.00
2023-02-02T02:56:05.426Z,6.10
2023-02-02T02:58:29.148Z,6.10
2023-02-02T03:00:46.717Z,6.20
2023-02-02T03:02:58.143Z,6.20
2023-02-02T03:05:21.853Z,6.20
2023-02-02T03:07:35.251Z,6.40
2023-02-02T03:09:41.712Z,6.50
2023-02-02T03:11:44.106Z,6.50
2023-02-02T03:13:46.161Z,6.50
2023-02-02T03:15:48.006Z,6.50
2023-02-02T03:17:52.544Z,6.60
2023-02-02T03:19:54.298Z,6.50
2023-02-02T03:21:56.118Z,6.50
2023-02-02T03:23:57.929Z,6.60
2023-02-02T03:25:59.791Z,6.60
2023-02-02T03:28:01.793Z,6.70
2023-02-02T03:30:05.098Z,6.60
2023-02-02T03:32:07.296Z,6.60
2023-02-02T03:34:08.997Z,6.60
2023-02-02T03:36:10.735Z,6.60
2023-02-02T03:38:12.788Z,6.60
2023-02-02T03:40:15.184Z,6.60
2023-02-02T03:42:16.858Z,6.60
2023-02-02T03:44:18.595Z,6.60
2023-02-02T03:46:20.360Z,6.60
2023-02-02T03:48:22.645Z,6.70
2023-02-02T03:50:25.414Z,6.70
2023-02-02T03:52:27.205Z,6.70
2023-02-02T03:54:29.068Z,6.80
2023-02-02T03:56:30.791Z,6.70
2023-02-02T03:58:32.654Z,6.70
2023-02-02T04:00:34.540Z,6.70
2023-02-02T04:02:36.276Z,6.80
2023-02-02T04:04:38.027Z,6.70
2023-02-02T04:06:39.746Z,6.70
2023-02-02T04:08:41.471Z,6.70
2023-02-02T04:10:43.241Z,6.70
2023-02-02T04:12:45.046Z,6.70
2023-02-02T04:14:46.830Z,6.70
2023-02-02T04:16:48.586Z,6.70
2023-02-02T04:18:50.542Z,6.70
2023-02-02T04:20:57.604Z,6.70
2023-02-02T04:22:59.399Z,6.70
2023-02-02T04:25:01.148Z,6.70
2023-02-02T04:27:02.921Z,6.70
2023-02-02T04:29:04.642Z,6.70
2023-02-02T04:31:06.496Z,6.80
2023-02-02T04:33:08.320Z,6.70
2023-02-02T04:35:10.041Z,6.80
2023-02-02T04:37:12.083Z,6.80
2023-02-02T04:39:13.924Z,6.80
2023-02-02T04:41:15.665Z,6.70
2023-02-02T04:43:17.419Z,6.80
2023-02-02T04:45:19.253Z,6.80
2023-02-02T04:47:20.950Z,6.80
2023-02-02T04:49:22.649Z,6.80
2023-02-02T04:51:24.416Z,6.80
2023-02-02T04:53:26.489Z,6.80
2023-02-02T04:55:28.160Z,6.80
2023-02-02T04:57:29.926Z,6.80
2023-02-02T04:59:31.572Z,6.80
2023-02-02T05:01:33.364Z,6.80
2023-02-02T05:03:35.072Z,6.80
2023-02-02T05:05:36.776Z,6.80
2023-02-02T05:07:40.168Z,6.70
2023-02-02T05:09:41.861Z,6.70
2023-02-02T05:11:44.597Z,6.70
2023-02-02T05:13:47.672Z,6.70
2023-02-02T05:15:49.500Z,6.70
2023-02-02T05:17:51.218Z,6.80
2023-02-02T05:19:53.017Z,6.70
2023-02-02T05:21:55.695Z,6.70
2023-02-02T05:23:57.969Z,6.70
2023-02-02T05:25:59.649Z,6.70
2023-02-02T05:28:01.862Z,6.80
2023-02-02T05:30:04.175Z,6.70
2023-02-02T05:32:05.948Z,6.80
2023-02-02T05:34:11.318Z,6.80
2023-02-02T05:36:13.656Z,6.80
2023-02-02T05:38:16.268Z,6.80
2023-02-02T05:40:18.064Z,6.80
2023-02-02T05:42:19.903Z,6.80
2023-02-02T05:44:21.686Z,6.80
2023-02-02T05:46:23.373Z,6.80
2023-02-02T05:48:25.473Z,6.80
2023-02-02T05:50:27.183Z,6.80
2023-02-02T05:52:35.510Z,6.70
2023-02-02T05:54:37.159Z,6.80
2023-02-02T05:56:39.206Z,6.80
2023-02-02T05:58:41.215Z,6.80
2023-02-02T06:00:43.015Z,6.80
2023-02-02T06:02:44.933Z,6.80
2023-02-02T06:04:46.700Z,6.80
2023-02-02T06:06:48.499Z,6.80
2023-02-02T06:08:50.172Z,6.80
2023-02-02T06:10:51.922Z,6.80
2023-02-02T06:12:53.747Z,6.80
2023-02-02T06:14:55.521Z,6.80
2023-02-02T06:16:57.411Z,6.80
2023-02-02T06:18:59.126Z,6.80
2023-02-02T06:21:01.867Z,6.80
2023-02-02T06:23:04.159Z,6.80
2023-02-02T06:25:07.896Z,6.80
2023-02-02T06:27:09.604Z,6.80
2023-02-02T06:29:13.271Z,6.90
2023-02-02T06:31:19.084Z,6.80
2023-02-02T06:33:20.960Z,6.80
2023-02-02T06:35:23.290Z,6.80
2023-02-02T06:37:25.155Z,6.80
2023-02-02T06:39:26.801Z,6.90
2023-02-02T06:41:28.571Z,6.80
2023-02-02T06:43:30.993Z,6.80
2023-02-02T06:45:32.809Z,6.80
2023-02-02T06:47:34.667Z,6.80
2023-02-02T06:49:36.412Z,6.90
2023-02-02T06:51:38.356Z,6.80
2023-02-02T06:53:40.105Z,6.80
2023-02-02T06:55:41.860Z,6.80
2023-02-02T06:57:44.199Z,6.80
2023-02-02T06:59:47.202Z,6.80
2023-02-02T07:01:50.147Z,6.80
2023-02-02T07:03:51.994Z,6.80
2023-02-02T07:05:53.851Z,6.80
2023-02-02T07:07:55.687Z,6.80
2023-02-02T07:09:57.936Z,6.80
2023-02-02T07:12:00.329Z,6.80
2023-02-02T07:14:02.653Z,6.80
2023-02-02T07:16:09.401Z,6.70
2023-02-02T07:18:11.203Z,6.60
2023-02-02T07:20:12.990Z,6.40
2023-02-02T07:22:16.044Z,6.40
2023-02-02T07:24:17.835Z,6.30
2023-02-02T07:26:20.446Z,6.40
2023-02-02T07:28:22.240Z,6.30
2023-02-02T07:30:25.646Z,6.20
2023-02-02T07:32:27.466Z,6.20
2023-02-02T07:34:29.140Z,6.20
2023-02-02T07:36:31.040Z,6.20
2023-02-02T07:38:32.752Z,6.20
2023-02-02T07:40:34.471Z,6.20
2023-02-02T07:42:36.662Z,6.20
2023-02-02T07:44:38.831Z,6.30
2023-02-02T07:46:40.625Z,6.30
2023-02-02T07:48:42.638Z,6.30
2023-02-02T07:50:44.461Z,6.30
2023-02-02T07:52:46.185Z,6.20
2023-02-02T07:54:47.921Z,6.20
2023-02-02T07:56:49.759Z,6.30
2023-02-02T07:58:53.932Z,6.20
2023-02-02T08:01:00.002Z,6.20
2023-02-02T08:03:01.893Z,6.20
2023-02-02T08:05:04.912Z,6.20
2023-02-02T08:07:06.627Z,6.20
2023-02-02T08:09:09.736Z,6.20
2023-02-02T08:11:13.213Z,6.20
2023-02-02T08:13:14.949Z,6.20
2023-02-02T08:15:16.773Z,6.20
2023-02-02T08:17:18.788Z,6.20
2023-02-02T08:19:20.494Z,6.20
2023-02-02T08:21:22.622Z,6.20
2023-02-02T08:23:24.344Z,6.20
2023-02-02T08:25:26.787Z,6.30
2023-02-02T08:27:28.670Z,6.30
2023-02-02T08:29:30.383Z,6.40
2023-02-02T08:31:35.804Z,6.40
2023-02-02T08:33:39.637Z,6.40
2023-02-02T08:35:43.167Z,6.40
2023-02-02T08:37:48.279Z,6.50
2023-02-02T08:39:51.528Z,6.50
2023-02-02T08:41:55.938Z,6.50
2023-02-02T08:43:58.098Z,6.60
2023-02-02T08:46:05.320Z,6.70
2023-02-02T08:48:12.167Z,6.70
2023-02-02T08:50:14.690Z,6.70
2023-02-02T08:52:16.515Z,6.70
2023-02-02T08:54:18.350Z,6.70
2023-02-02T08:56:21.334Z,6.70
2023-02-02T08:58:23.129Z,6.70
2023-02-02T09:00:24.963Z,6.70
2023-02-02T09:02:26.806Z,6.70
2023-02-02T09:04:28.639Z,6.70
2023-02-02T09:06:39.271Z,6.70
2023-02-02T09:08:41.680Z,6.70
2023-02-02T09:10:43.474Z,6.70
2023-02-02T09:12:45.363Z,6.70
2023-02-02T09:14:47.052Z,6.70
2023-02-02T09:16:48.774Z,6.70
2023-02-02T09:18:50.800Z,6.70
2023-02-02T09:20:52.488Z,6.70
2023-02-02T09:22:57.167Z,6.70
2023-02-02T09:24:58.997Z,6.70
2023-02-02T09:27:00.726Z,6.70
2023-02-02T09:29:05.207Z,6.70
2023-02-02T09:31:07.680Z,6.70
2023-02-02T09:33:09.381Z,6.80
2023-02-02T09:35:11.355Z,6.80
2023-02-02T09:37:13.285Z,6.80
2023-02-02T09:39:16.680Z,6.80
2023-02-02T09:41:36.883Z,6.80
2023-02-02T09:43:57.137Z,6.90
2023-02-02T09:46:13.270Z,6.90
2023-02-02T09:48:36.871Z,7.00
2023-02-02T09:50:58.922Z,7.00
2023-02-02T09:53:15.679Z,7.10
2023-02-02T09:55:40.001Z,7.10
2023-02-02T09:57:50.776Z,7.20
2023-02-02T09:59:54.478Z,7.30
2023-02-02T10:02:02.935Z,7.20
2023-02-02T10:04:27.850Z,7.20
2023-02-02T10:06:41.026Z,7.30
2023-02-02T10:08:49.039Z,7.30
2023-02-02T10:10:51.658Z,7.40
2023-02-02T10:12:58.478Z,7.40
2023-02-02T10:15:23.052Z,7.50
2023-02-02T10:17:30.886Z,7.50
2023-02-02T10:19:33.943Z,7.50
2023-02-02T10:21:40.871Z,7.50
2023-02-02T10:23:44.676Z,7.40
2023-02-02T10:26:12.220Z,7.50
2023-02-02T10:28:34.610Z,7.50
2023-02-02T10:30:49.896Z,7.50
2023-02-02T10:33:02.150Z,7.50
2023-02-02T10:35:13.982Z,7.50
2023-02-02T10:37:16.385Z,7.50
2023-02-02T10:39:36.908Z,7.50
2023-02-02T10:42:08.217Z,7.50
2023-02-02T10:44:24.395Z,7.50
2023-02-02T10:46:40.628Z,7.50
2023-02-02T10:48:45.457Z,7.50
2023-02-02T10:50:57.824Z,7.40
2023-02-02T10:53:10.361Z,7.40
2023-02-02T10:55:19.359Z,7.30
2023-02-02T10:57:32.916Z,7.40
2023-02-02T10:59:44.322Z,7.40
2023-02-02T11:01:46.147Z,7.50
2023-02-02T11:03:48.017Z,7.40
2023-02-02T11:06:08.282Z,7.30
2023-02-02T11:08:46.229Z,7.20
2023-02-02T11:10:53.120Z,7.10
2023-02-02T11:12:58.390Z,7.10
2023-02-02T11:15:08.566Z,7.00
2023-02-02T11:17:19.687Z,7.00
2023-02-02T11:19:24.244Z,7.00
2023-02-02T11:21:29.984Z,7.00
2023-02-02T11:23:32.338Z,7.00
2023-02-02T11:25:36.999Z,7.10
2023-02-02T11:27:41.232Z,7.00
2023-02-02T11:29:47.234Z,7.00
2023-02-02T11:31:49.151Z,7.00
2023-02-02T11:33:51.001Z,7.00
2023-02-02T11:35:59.088Z,6.90
2023-02-02T11:38:19.357Z,6.90
2023-02-02T11:40:34.163Z,7.00
2023-02-02T11:42:35.911Z,7.00
2023-02-02T11:44:39.954Z,7.00
2023-02-02T11:46:41.790Z,7.10
2023-02-02T11:49:00.673Z,7.10
2023-02-02T11:51:04.313Z,7.20
2023-02-02T11:53:06.826Z,7.10
2023-02-02T11:55:17.042Z,7.20
2023-02-02T11:57:22.231Z,7.10
2023-02-02T11:59:28.282Z,7.10
2023-02-02T12:01:39.774Z,7.10
2023-02-02T12:03:41.611Z,7.10
2023-02-02T12:05:46.614Z,7.10
2023-02-02T12:07:49.392Z,7.10
2023-02-02T12:09:51.509Z,7.10
2023-02-02T12:12:14.973Z,7.10
2023-02-02T12:14:35.378Z,7.10
2023-02-02T12:16:44.049Z,7.10
2023-02-02T12:19:09.882Z,7.10
2023-02-02T12:21:11.571Z,7.20
2023-02-02T12:23:22.232Z,7.10
2023-02-02T12:25:39.482Z,7.10
2023-02-02T12:28:15.206Z,7.10
2023-02-02T12:30:16.945Z,7.20
2023-02-02T12:32:28.049Z,7.20
2023-02-02T12:34:56.886Z,7.20
2023-02-02T12:37:19.853Z,7.20
2023-02-02T12:39:43.502Z,7.20
2023-02-02T12:41:56.084Z,7.20
2023-02-02T12:44:19.401Z,7.20
2023-02-02T12:47:03.016Z,7.20
2023-02-02T12:49:13.294Z,7.10
2023-02-02T12:51:44.904Z,7.10
2023-02-02T12:54:32.740Z,7.10
2023-02-02T12:56:34.586Z,7.10
2023-02-02T12:59:10.735Z,7.10
2023-02-02T13:01:13.416Z,7.10
2023-02-02T13:03:53.164Z,7.10
2023-02-02T13:06:13.041Z,7.10
2023-02-02T13:08:30.131Z,7.10
2023-02-02T13:10:38.559Z,7.00
2023-02-02T13:12:53.272Z,7.00
2023-02-02T13:15:03.206Z,7.00
2023-02-02T13:17:15.418Z,7.00
2023-02-02T13:19:25.839Z,7.00
2023-02-02T13:21:29.475Z,7.00
2023-02-02T13:23:36.241Z,7.00
2023-02-02T13:25:46.049Z,7.00
2023-02-02T13:27:49.670Z,7.00
2023-02-02T13:30:11.153Z,7.00
2023-02-02T13:32:27.085Z,7.00
2023-02-02T13:34:38.050Z,7.00
2023-02-02T13:36:42.078Z,7.00
2023-02-02T13:38:45.950Z,7.00
2023-02-02T13:40:48.671Z,7.00
2023-02-02T13:42:58.044Z,7.00
2023-02-02T13:45:13.779Z,7.10
2023-02-02T13:47:35.967Z,7.10
2023-02-02T13:49:55.911Z,7.10
2023-02-02T13:52:23.755Z,7.20
2023-02-02T13:54:57.624Z,7.30
2023-02-02T13:57:23.538Z,7.30
2023-02-02T13:59:54.254Z,7.30
2023-02-02T14:01:58.535Z,7.30
2023-02-02T14:04:04.506Z,7.30
2023-02-02T14:06:20.822Z,7.30
2023-02-02T14:08:25.375Z,7.30
2023-02-02T14:10:28.561Z,7.30
2023-02-02T14:12:33.833Z,7.30
2023-02-02T14:14:39.783Z,7.40
2023-02-02T14:16:43.311Z,7.40
2023-02-02T14:18:56.809Z,7.40
2023-02-02T14:20:58.509Z,7.40
2023-02-02T14:23:00.238Z,7.40
2023-02-02T14:25:02.055Z,7.40
2023-02-02T14:27:09.686Z,7.50
2023-02-02T14:29:32.982Z,7.40
2023-02-02T14:32:34.642Z,7.40
2023-02-02T14:34:39.406Z,7.50
2023-02-02T14:36:59.823Z,7.50
2023-02-02T14:39:10.392Z,7.50
2023-02-02T14:42:00.985Z,7.50
2023-02-02T14:44:05.259Z,7.50
2023-02-02T14:46:10.657Z,7.50
2023-02-02T14:48:18.578Z,7.50
2023-02-02T14:50:38.305Z,7.50
2023-02-02T14:52:41.093Z,7.50
2023-02-02T14:54:48.458Z,7.50
2023-02-02T14:56:54.426Z,7.50
2023-02-02T14:59:00.932Z,7.50
2023-02-02T15:01:17.766Z,7.50
2023-02-02T15:03:46.806Z,7.60
2023-02-02T15:06:14.812Z,7.60
2023-02-02T15:08:27.111Z,7.60
2023-02-02T15:10:54.066Z,7.60
2023-02-02T15:13:12.514Z,7.60
2023-02-02T15:15:19.622Z,7.60
2023-02-02T15:17:40.136Z,7.60
2023-02-02T15:19:50.617Z,7.50
2023-02-02T15:21:57.079Z,7.50
2023-02-02T15:24:00.299Z,7.70
2023-02-02T15:26:12.753Z,7.60
2023-02-02T15:28:21.439Z,7.60
2023-02-02T15:30:27.200Z,7.70
2023-02-02T15:32:30.557Z,7.60
2023-02-02T15:34:40.358Z,7.60
2023-02-02T15:36:46.627Z,7.70
2023-02-02T15:38:52.279Z,7.60
2023-02-02T15:40:56.786Z,7.60
2023-02-02T15:43:09.463Z,7.60
2023-02-02T15:45:31.633Z,7.70
2023-02-02T15:47:39.663Z,7.70
2023-02-02T15:49:42.981Z,7.70
2023-02-02T15:51:50.484Z,7.60
2023-02-02T15:53:52.277Z,7.60
2023-02-02T15:55:55.819Z,7.60
2023-02-02T15:57:57.575Z,7.70
2023-02-02T16:00:00.863Z,7.60
2023-02-02T16:02:28.438Z,7.60
2023-02-02T16:04:38.985Z,7.60
2023-02-02T16:06:41.451Z,7.60
2023-02-02T16:08:43.306Z,7.60
2023-02-02T16:10:46.815Z,7.60
2023-02-02T16:12:49.122Z,7.60
2023-02-02T16:14:53.381Z,7.60
2023-02-02T16:16:55.091Z,7.60
2023-02-02T16:19:09.180Z,7.60
2023-02-02T16:21:19.581Z,7.60
2023-02-02T16:23:28.923Z,7.60
2023-02-02T16:25:34.025Z,7.60
2023-02-02T16:27:36.611Z,7.60
2023-02-02T16:29:41.278Z,7.60
2023-02-02T16:31:48.423Z,7.60
2023-02-02T16:33:51.137Z,7.60
2023-02-02T16:35:53.209Z,7.60
2023-02-02T16:38:12.620Z,7.50
2023-02-02T16:40:23.368Z,7.60
2023-02-02T16:42:33.513Z,7.50
2023-02-02T16:44:43.559Z,7.50
2023-02-02T16:46:49.773Z,7.60
2023-02-02T16:49:00.485Z,7.60
2023-02-02T16:51:17.183Z,7.60
2023-02-02T16:53:23.866Z,7.60
2023-02-02T16:55:43.656Z,7.60
2023-02-02T16:57:51.741Z,7.60
2023-02-02T16:59:59.331Z,7.60
2023-02-02T17:02:14.705Z,7.60
2023-02-02T17:04:26.649Z,7.60
2023-02-02T17:06:50.154Z,7.60
2023-02-02T17:08:53.332Z,7.60
2023-02-02T17:11:02.651Z,7.60
2023-02-02T17:13:30.069Z,7.60
2023-02-02T17:15:35.450Z,7.60
2023-02-02T17:17:37.481Z,7.60
2023-02-02T17:19:39.186Z,7.60
2023-02-02T17:21:40.917Z,7.70
2023-02-02T17:23:43.615Z,7.70
2023-02-02T17:25:47.863Z,7.60
2023-02-02T17:27:49.704Z,7.60
2023-02-02T17:29:51.794Z,7.60
2023-02-02T17:31:53.721Z,7.60
2023-02-02T17:33:55.594Z,7.60
2023-02-02T17:35:57.329Z,7.60
2023-02-02T17:37:59.074Z,7.60
2023-02-02T17:40:00.723Z,7.60
2023-02-02T17:42:02.468Z,7.60
2023-02-02T17:44:06.672Z,7.60
2023-02-02T17:46:11.977Z,7.60
2023-02-02T17:48:14.321Z,7.60
2023-02-02T17:50:16.933Z,7.60
2023-02-02T17:52:18.757Z,7.60
2023-02-02T17:54:20.506Z,7.60
2023-02-02T17:56:22.465Z,7.50
2023-02-02T17:58:31.939Z,7.60
2023-02-02T18:00:34.933Z,7.50
2023-02-02T18:02:36.952Z,7.50
2023-02-02T18:04:38.728Z,7.50
2023-02-02T18:06:47.346Z,7.50
2023-02-02T18:08:51.432Z,7.50
2023-02-02T18:10:53.314Z,7.50
2023-02-02T18:12:55.065Z,7.40
2023-02-02T18:14:59.248Z,7.50
2023-02-02T18:17:01.035Z,7.50
2023-02-02T18:19:06.614Z,7.40
2023-02-02T18:21:10.728Z,7.40
2023-02-02T18:23:13.004Z,7.40
2023-02-02T18:25:15.454Z,7.40
2023-02-02T18:27:19.144Z,7.40
2023-02-02T18:29:20.888Z,7.40
2023-02-02T18:31:24.120Z,7.40
2023-02-02T18:33:28.183Z,7.40
2023-02-02T18:35:31.869Z,7.40
2023-02-02T18:37:34.279Z,7.40
2023-02-02T18:39:36.207Z,7.40
2023-02-02T18:41:37.997Z,7.40
2023-02-02T18:43:39.820Z,7.40
2023-02-02T18:45:41.637Z,7.40
2023-02-02T18:47:45.901Z,7.40
2023-02-02T18:49:47.669Z,7.30
2023-02-02T18:51:50.524Z,7.30
2023-02-02T18:53:52.382Z,7.30
2023-02-02T18:55:54.112Z,7.30
2023-02-02T18:57:56.107Z,7.30
2023-02-02T19:00:00.870Z,7.30
2023-02-02T19:02:02.680Z,7.40
2023-02-02T19:04:56.317Z,7.40
2023-02-02T19:13:34.712Z,7.40
2023-02-02T19:15:49.124Z,7.40
2023-02-02T19:17:53.250Z,7.40
2023-02-02T19:19:58.399Z,7.50
2023-02-02T19:22:04.637Z,7.60
2023-02-02T19:24:10.394Z,7.60
2023-02-02T19:26:24.497Z,7.50
2023-02-02T19:28:31.409Z,7.40
2023-02-02T19:30:33.106Z,7.40
2023-02-02T19:32:35.994Z,7.40
2023-02-02T19:34:37.944Z,7.40
2023-02-02T19:36:47.428Z,7.30
2023-02-02T19:38:52.353Z,7.30
2023-02-02T19:40:55.243Z,7.30
2023-02-02T19:43:07.466Z,7.30
2023-02-02T19:45:31.000Z,7.30
2023-02-02T19:47:33.735Z,7.30
2023-02-02T19:49:36.872Z,7.20
2023-02-02T19:51:44.344Z,7.20
2023-02-02T19:53:46.465Z,7.20
2023-02-02T19:55:48.514Z,7.20
2023-02-02T19:57:51.616Z,7.20
2023-02-02T19:59:54.690Z,7.10
2023-02-02T20:01:56.610Z,7.10
2023-02-02T20:03:58.550Z,7.10
2023-02-02T20:06:04.198Z,7.10
2023-02-02T20:08:05.936Z,7.10
2023-02-02T20:10:35.045Z,7.10
2023-02-02T20:12:37.997Z,7.10
2023-02-02T20:14:39.825Z,7.10
2023-02-02T20:16:44.172Z,7.10
2023-02-02T20:18:53.571Z,7.00
2023-02-02T20:20:56.960Z,7.00
2023-02-02T20:22:58.884Z,7.00
2023-02-02T20:25:06.290Z,7.00
2023-02-02T20:27:18.627Z,7.00
2023-02-02T20:29:42.286Z,7.00
2023-02-02T20:31:45.775Z,7.00
2023-02-02T20:33:53.549Z,6.90
2023-02-02T20:35:56.237Z,6.90
2023-02-02T20:37:58.024Z,6.90
2023-02-02T20:40:07.793Z,6.90
2023-02-02T20:42:09.662Z,6.90
2023-02-02T20:44:12.195Z,6.80
2023-02-02T20:46:15.084Z,6.80
2023-02-02T20:48:17.132Z,6.80
2023-02-02T20:50:20.951Z,6.80
2023-02-02T20:52:23.837Z,6.80
2023-02-02T20:54:26.429Z,6.70
2023-02-02T20:56:28.071Z,6.70
2023-02-02T20:58:29.777Z,6.60
2023-02-02T21:00:32.014Z,6.60
2023-02-02T21:02:33.906Z,6.60
2023-02-02T21:04:35.701Z,6.60
2023-02-02T21:06:39.132Z,6.60
2023-02-02T21:08:40.858Z,6.60
2023-02-02T21:10:42.612Z,6.60
2023-02-02T21:12:45.115Z,6.60
2023-02-02T21:14:47.593Z,6.60
2023-02-02T21:16:49.313Z,6.60
2023-02-02T21:18:51.231Z,6.60
2023-02-02T21:20:53.056Z,6.60
2023-02-02T21:22:56.673Z,6.50
2023-02-02T21:24:58.403Z,6.50
2023-02-02T21:27:01.945Z,6.50
2023-02-02T21:29:03.749Z,6.50
2023-02-02T21:31:10.276Z,6.50
2023-02-02T21:33:12.182Z,6.50
2023-02-02T21:35:15.171Z,6.50
2023-02-02T21:37:17.017Z,6.50
2023-02-02T21:39:28.660Z,6.50
2023-02-02T21:41:33.171Z,6.50
2023-02-02T21:43:34.901Z,6.50
2023-02-02T21:45:38.365Z,6.50
2023-02-02T21:47:57.907Z,6.50
2023-02-02T21:50:13.315Z,6.50
2023-02-02T21:52:17.421Z,6.50
2023-02-02T21:54:22.158Z,6.50
2023-02-02T21:56:28.017Z,6.50
2023-02-02T21:58:38.699Z,6.50
2023-02-02T22:00:40.480Z,6.50
2023-02-02T22:02:45.231Z,6.50
2023-02-02T22:04:47.014Z,6.50
2023-02-02T22:06:53.992Z,6.50
2023-02-02T22:09:13.644Z,6.50
2023-02-02T22:11:31.082Z,6.40
2023-02-02T22:13:35.546Z,6.40
2023-02-02T22:15:39.003Z,6.40
2023-02-02T22:17:41.831Z,6.40
2023-02-02T22:19:43.882Z,6.40
2023-02-02T22:21:45.660Z,6.40
2023-02-02T22:23:47.409Z,6.40
2023-02-02T22:25:52.980Z,6.40
2023-02-02T22:27:59.741Z,6.30
2023-02-02T22:30:16.898Z,6.40
2023-02-02T22:32:18.638Z,6.40
2023-02-02T22:34:20.402Z,6.40
2023-02-02T22:36:22.106Z,6.40
2023-02-02T22:38:25.469Z,6.40
2023-02-02T22:40:27.588Z,6.40
2023-02-02T22:42:29.689Z,6.40
2023-02-02T22:44:31.482Z,6.40
2023-02-02T22:46:33.232Z,6.40
2023-02-02T22:48:35.027Z,6.30
2023-02-02T22:50:36.849Z,6.30
2023-02-02T22:52:38.709Z,6.30
2023-02-02T22:54:40.551Z,6.30
2023-02-02T22:56:42.470Z,6.30
2023-02-02T22:58:44.181Z,6.30
2023-02-02T23:00:45.930Z,6.30
2023-02-02T23:02:47.890Z,6.30
2023-02-02T23:04:49.628Z,6.30
2023-02-02T23:06:51.361Z,6.30
2023-02-02T23:08:53.140Z,6.30
2023-02-02T23:10:54.958Z,6.30
2023-02-02T23:12:58.512Z,6.40
2023-02-02T23:15:00.572Z,6.40
2023-02-02T23:17:02.317Z,6.30
2023-02-02T23:19:04.336Z,6.30
2023-02-02T23:21:06.450Z,6.30
2023-02-02T23:23:08.231Z,6.40
2023-02-02T23:25:10.956Z,6.40
2023-02-02T23:27:13.077Z,6.40
2023-02-02T23:29:14.964Z,6.40
2023-02-02T23:31:16.820Z,6.40
2023-02-02T23:33:18.977Z,6.40
2023-02-02T23:35:20.900Z,6.40
2023-02-02T23:37:22.616Z,6.40
2023-02-02T23:39:24.346Z,6.50
2023-02-02T23:41:26.113Z,6.50
2023-02-02T23:43:28.249Z,6.50
2023-02-02T23:45:29.983Z,6.60
2023-02-02T23:47:33.815Z,6.60
2023-02-02T23:49:36.487Z,6.50
2023-02-02T23:51:38.745Z,6.50
2023-02-02T23:53:41.475Z,6.50
2023-02-02T23:55:43.819Z,6.60
2023-02-02T23:57:45.599Z,6.60
2023-02-02T23:59:47.326Z,6.60
